createdAt,value
2023-07-06T00:04:40.619Z,27.54
2023-07-06T00:09:42.706Z,28.19
2023-07-06T00:14:45.209Z,26.38
2023-07-06T00:19:48.671Z,27.54
2023-07-06T00:25:01.233Z,27.63
2023-07-06T00:30:21.193Z,27.19
2023-07-06T00:35:32.210Z,28.46
2023-07-06T00:40:35.185Z,28.37
2023-07-06T00:45:39.010Z,27.03
2023-07-06T00:50:44.331Z,27.75
2023-07-06T00:55:52.890Z,27.91
2023-07-06T01:01:01.561Z,26.69
2023-07-06T01:06:07.492Z,27.94
2023-07-06T01:11:11.082Z,29.02
2023-07-06T01:16:34.852Z,27.97
2023-07-06T01:22:04.408Z,29.57
2023-07-06T01:27:24.764Z,30.83
2023-07-06T01:32:28.866Z,30.32
2023-07-06T01:37:48.797Z,31.79
2023-07-06T01:42:51.098Z,32.62
2023-07-06T01:53:23.323Z,33.45
2023-07-06T01:58:33.936Z,34.61
2023-07-06T02:03:38.353Z,34.09
2023-07-06T02:08:43.291Z,36.31
2023-07-06T02:13:46.248Z,37.23
2023-07-06T02:18:51.033Z,36.54
2023-07-06T02:23:53.525Z,40.19
2023-07-06T02:29:03.187Z,43.88
2023-07-06T02:34:05.696Z,41.08
2023-07-06T02:39:08.174Z,45.68
2023-07-06T02:44:13.543Z,48.90
2023-07-06T02:49:17.532Z,49.29
2023-07-06T02:54:22.144Z,52.16
2023-07-06T02:59:25.534Z,54.98
2023-07-06T03:04:33.459Z,54.80
2023-07-06T03:09:50.112Z,53.62
2023-07-06T03:14:52.312Z,58.66
2023-07-06T03:19:54.908Z,61.73
2023-07-06T03:24:59.868Z,60.32
2023-07-06T03:30:12.235Z,62.43
2023-07-06T03:35:15.301Z,63.96
2023-07-06T03:40:21.375Z,61.13
2023-07-06T03:45:26.916Z,62.31
2023-07-06T03:50:33.894Z,60.25
2023-07-06T03:55:42.740Z,57.11
2023-07-06T04:00:44.870Z,58.59
2023-07-06T04:05:51.738Z,62.66
2023-07-06T04:11:16.341Z,64.73
2023-07-06T04:16:20.179Z,63.53
2023-07-06T04:21:28.615Z,66.45
2023-07-06T04:26:33.727Z,67.40
2023-07-06T04:31:37.950Z,64.92
2023-07-06T04:36:41.373Z,66.52
2023-07-06T04:41:45.311Z,67.01
2023-07-06T04:46:47.738Z,66.86
2023-07-06T04:51:56.187Z,64.95
2023-07-06T04:57:01.264Z,66.39
2023-07-06T05:02:10.988Z,67.52
2023-07-06T05:07:13.453Z,64.06
2023-07-06T05:12:18.455Z,64.79
2023-07-06T05:17:23.707Z,66.36
2023-07-06T05:22:26.713Z,66.49
2023-07-06T05:27:32.781Z,63.75
2023-07-06T05:32:39.775Z,64.99
2023-07-06T05:37:43.522Z,65.45
2023-07-06T05:42:45.961Z,61.75
2023-07-06T05:47:51.418Z,63.63
2023-07-06T05:53:07.272Z,64.96
2023-07-06T06:03:26.264Z,63.79
2023-07-06T06:08:51.834Z,64.91
2023-07-06T06:13:59.478Z,64.95
2023-07-06T06:19:03.986Z,64.07
2023-07-06T06:24:15.017Z,64.85
2023-07-06T06:29:18.586Z,65.19
2023-07-06T06:34:24.539Z,66.50
2023-07-06T06:39:27.127Z,66.86
2023-07-06T06:44:32.955Z,66.36
2023-07-06T06:49:35.623Z,66.57
2023-07-06T06:54:38.171Z,66.17
2023-07-06T06:59:42.306Z,65.98
2023-07-06T07:04:44.485Z,66.87
2023-07-06T07:09:58.388Z,64.94
2023-07-06T07:15:19.550Z,65.23
2023-07-06T07:20:22.785Z,64.34
2023-07-06T07:25:31.197Z,64.28
2023-07-06T07:30:42.165Z,62.70
2023-07-06T07:35:58.114Z,61.70
2023-07-06T07:41:01.835Z,61.76
2023-07-06T07:46:08.483Z,61.13
2023-07-06T07:51:45.668Z,60.92
2023-07-06T07:56:59.778Z,59.83
2023-07-06T08:02:23.577Z,58.88
2023-07-06T08:07:27.807Z,58.45
2023-07-06T08:12:33.966Z,57.96
2023-07-06T08:17:38.572Z,57.47
2023-07-06T08:22:42.667Z,57.70
2023-07-06T08:27:45.664Z,56.28
2023-07-06T08:32:50.370Z,55.30
2023-07-06T08:37:53.033Z,50.62
2023-07-06T08:42:59.683Z,47.89
2023-07-06T08:48:07.599Z,46.15
2023-07-06T08:53:16.048Z,46.02
2023-07-06T08:58:33.244Z,42.16
2023-07-06T09:03:43.841Z,42.84
2023-07-06T09:09:08.584Z,41.16
2023-07-06T09:14:15.263Z,39.02
2023-07-06T09:19:22.999Z,38.84
2023-07-06T09:24:32.648Z,36.94
2023-07-06T09:29:37.692Z,34.39
2023-07-06T09:34:46.708Z,33.19
2023-07-06T09:40:17.580Z,33.56
2023-07-06T09:45:30.265Z,34.65
2023-07-06T09:50:50.079Z,33.86
2023-07-06T09:55:52.497Z,32.42
2023-07-06T10:01:08.383Z,30.96
2023-07-06T10:06:57.217Z,30.04
2023-07-06T10:12:10.294Z,30.86
2023-07-06T10:17:41.867Z,29.56
2023-07-06T10:22:58.780Z,29.37
2023-07-06T10:28:24.872Z,27.92
2023-07-06T10:34:27.616Z,28.20
2023-07-06T10:39:29.917Z,29.52
2023-07-06T10:44:43.164Z,27.41
2023-07-06T10:50:04.923Z,27.70
2023-07-06T10:55:20.132Z,26.43
2023-07-06T11:00:37.067Z,26.66
2023-07-06T11:05:53.622Z,26.29
2023-07-06T11:10:58.282Z,25.39
2023-07-06T11:16:08.270Z,25.25
2023-07-06T11:21:29.216Z,25.42
2023-07-06T11:27:01.867Z,23.54
2023-07-06T11:32:45.031Z,24.58
2023-07-06T11:38:22.349Z,22.53
2023-07-06T11:43:54.387Z,22.72
2023-07-06T11:49:17.458Z,22.58
2023-07-06T11:54:43.713Z,22.80
2023-07-06T12:05:35.447Z,22.70
2023-07-06T12:10:46.139Z,21.66
2023-07-06T12:15:56.434Z,23.18
2023-07-06T12:21:06.243Z,22.59
2023-07-06T12:26:15.960Z,22.75
2023-07-06T12:31:25.296Z,22.00
2023-07-06T12:36:33.568Z,22.71
2023-07-06T12:41:41.860Z,21.97
2023-07-06T12:46:53.130Z,20.01
2023-07-06T12:51:59.101Z,20.25
2023-07-06T12:57:06.473Z,19.26
2023-07-06T13:02:17.267Z,19.02
2023-07-06T13:07:29.077Z,19.95
2023-07-06T13:12:34.842Z,20.77
2023-07-06T13:17:37.761Z,18.14
2023-07-06T13:22:40.297Z,19.00
2023-07-06T13:27:45.828Z,18.25
2023-07-06T13:32:48.532Z,19.68
2023-07-06T13:37:52.849Z,19.51
2023-07-06T13:42:55.729Z,19.47
2023-07-06T13:48:00.370Z,17.74
2023-07-06T13:53:02.927Z,18.54
2023-07-06T13:58:13.088Z,17.82
2023-07-06T14:03:36.033Z,19.05
2023-07-06T14:08:39.460Z,18.52
2023-07-06T14:13:44.939Z,18.68
2023-07-06T14:18:53.442Z,18.94
2023-07-06T14:23:55.889Z,19.83
2023-07-06T14:28:59.183Z,18.40
2023-07-06T14:34:03.319Z,18.89
2023-07-06T14:39:05.917Z,17.85
2023-07-06T14:44:10.606Z,18.04
2023-07-06T14:49:18.857Z,18.04
2023-07-06T14:54:21.077Z,17.21
2023-07-06T14:59:23.460Z,18.87
2023-07-06T15:04:25.669Z,18.12
2023-07-06T15:09:28.872Z,15.60
2023-07-06T15:14:32.652Z,16.38
2023-07-06T15:19:34.750Z,16.92
2023-07-06T15:24:36.982Z,16.43
2023-07-06T15:29:39.729Z,15.13
2023-07-06T15:34:55.620Z,16.14
2023-07-06T15:40:03.117Z,16.22
2023-07-06T15:45:06.968Z,15.01
2023-07-06T15:50:10.217Z,15.42
2023-07-06T15:55:13.368Z,15.68
2023-07-06T16:00:16.398Z,16.42
2023-07-06T16:05:19.218Z,15.48
2023-07-06T16:10:21.527Z,15.53
2023-07-06T16:15:26.593Z,15.24
2023-07-06T16:20:31.653Z,14.83
2023-07-06T16:25:34.223Z,15.99
2023-07-06T16:30:37.667Z,16.00
2023-07-06T16:35:40.928Z,17.29
2023-07-06T16:40:43.138Z,16.63
2023-07-06T16:45:48.492Z,15.91
2023-07-06T16:50:57.420Z,16.21
2023-07-06T16:56:00.309Z,15.75
2023-07-06T17:01:12.521Z,15.97
2023-07-06T17:11:33.758Z,16.62
2023-07-06T17:16:36.014Z,16.96
2023-07-06T17:21:42.412Z,16.01
2023-07-06T17:26:46.031Z,16.48
2023-07-06T17:31:58.297Z,16.80
2023-07-06T17:37:00.983Z,17.61
2023-07-06T17:42:03.766Z,17.69
2023-07-06T17:47:07.181Z,16.70
2023-07-06T17:52:09.642Z,16.95
2023-07-06T17:57:15.452Z,17.83
2023-07-06T18:02:19.095Z,16.37
2023-07-06T18:07:28.802Z,16.76
2023-07-06T18:12:43.197Z,16.74
2023-07-06T18:17:47.047Z,16.75
2023-07-06T18:22:50.267Z,16.35
2023-07-06T18:27:56.403Z,16.65
2023-07-06T18:32:59.543Z,17.78
2023-07-06T18:38:02.640Z,17.28
2023-07-06T18:43:09.954Z,16.73
2023-07-06T18:48:15.368Z,16.96
2023-07-06T18:53:26.440Z,17.97
2023-07-06T18:58:36.628Z,18.26
2023-07-06T19:03:41.502Z,18.45
2023-07-06T19:08:44.628Z,18.12
2023-07-06T19:13:46.939Z,20.16
2023-07-06T19:18:51.254Z,18.64
2023-07-06T19:23:53.763Z,20.06
2023-07-06T19:28:56.419Z,19.63
2023-07-06T19:33:59.633Z,20.30
2023-07-06T19:39:02.244Z,20.41
2023-07-06T19:44:09.192Z,20.67
2023-07-06T19:49:15.592Z,20.59
2023-07-06T19:54:17.711Z,20.53
2023-07-06T19:59:31.255Z,21.49
2023-07-06T20:04:34.124Z,20.02
2023-07-06T20:09:37.011Z,20.37
2023-07-06T20:14:41.109Z,21.23
2023-07-06T20:19:43.714Z,21.29
2023-07-06T20:24:45.940Z,21.72
2023-07-06T20:29:50.137Z,21.22
2023-07-06T20:34:57.335Z,21.28
2023-07-06T20:40:05.252Z,22.27
2023-07-06T20:45:11.696Z,23.07
2023-07-06T20:50:15.825Z,23.47
2023-07-06T20:55:19.559Z,27.44
2023-07-06T21:00:22.868Z,28.22
2023-07-06T21:05:25.215Z,25.46
2023-07-06T21:10:28.194Z,31.32
2023-07-06T21:15:38.852Z,27.56
2023-07-06T21:20:44.411Z,24.40
2023-07-06T21:25:47.338Z,24.10
2023-07-06T21:30:49.377Z,25.31
2023-07-06T21:35:51.540Z,25.43
2023-07-06T21:41:01.091Z,24.70
2023-07-06T21:46:06.453Z,25.57
2023-07-06T21:51:15.525Z,24.94
2023-07-06T21:56:24.066Z,25.30
2023-07-06T22:01:26.432Z,25.96
2023-07-06T22:06:28.729Z,27.05
2023-07-06T22:11:31.856Z,25.21
2023-07-06T22:16:34.431Z,26.42
2023-07-06T22:21:36.780Z,26.32
2023-07-06T22:26:41.738Z,27.02
2023-07-06T22:31:44.459Z,28.77
2023-07-06T22:36:46.578Z,28.37
2023-07-06T22:41:49.446Z,29.41
2023-07-06T22:46:59.574Z,29.57
2023-07-06T22:52:02.718Z,28.95
2023-07-06T22:57:11.653Z,29.37
2023-07-06T23:02:14.114Z,30.26
2023-07-06T23:07:17.170Z,29.12
2023-07-06T23:12:20.140Z,29.89
2023-07-06T23:17:22.894Z,30.60
2023-07-06T23:27:57.861Z,30.75
2023-07-06T23:33:01.535Z,30.90
2023-07-06T23:38:09.896Z,30.81
2023-07-06T23:48:34.423Z,32.21
2023-07-06T23:53:39.435Z,30.71
2023-07-06T23:58:42.497Z,32.27
